Time;durP1;ratioP1;P1;durP2;ratioP2;P2;SDS_P1;SDS_P2;PMS_P1;PMS_P2;Temp;Humidity;BMP_temperature;BMP_pressure;BME280_temperature;BME280_humidity;BME280_pressure;Samples;Min_cycle;Max_cycle;Signal;HPM_P1;HPM_P2
2022/01/09 00:00:24;;;;;;;;;5.67;2.67;;;;;-149.69;100.00;58464.25;6233924;22;30051;-91
2022/01/09 00:02:50;;;;;;;;;3.00;1.67;;;;;-149.69;100.00;58464.25;6261624;22;28444;-91
2022/01/09 00:05:16;;;;;;;;;3.33;1.67;;;;;-149.69;100.00;58464.25;6234401;22;28413;-92
2022/01/09 00:07:41;;;;;;;;;2.67;1.67;;;;;-149.69;100.00;58464.25;6261020;22;28562;-91
2022/01/09 00:10:07;;;;;;;;;1.00;1.00;;;;;-149.69;100.00;58464.25;6250982;22;45358;-92
2022/01/09 00:12:34;;;;;;;;;1.00;1.00;;;;;-149.69;100.00;58464.25;6258182;22;30469;-91
2022/01/09 00:14:59;;;;;;;;;0.00;0.00;;;;;-149.69;100.00;58464.25;6238621;22;28491;-92
2022/01/09 00:17:24;;;;;;;;;4.67;1.67;;;;;-149.69;100.00;58464.25;6233746;22;42366;-91
2022/01/09 00:19:50;;;;;;;;;3.67;2.67;;;;;-149.69;100.00;58464.25;6232312;22;47988;-91
2022/01/09 00:22:18;;;;;;;;;5.33;0.67;;;;;-149.69;100.00;58464.25;6267951;22;28558;-91
2022/01/09 00:24:44;;;;;;;;;3.00;2.00;;;;;-149.69;100.00;58464.25;6243882;22;28309;-91
2022/01/09 00:27:09;;;;;;;;;3.33;1.00;;;;;-149.69;100.00;58464.25;6236400;22;28366;-92
2022/01/09 00:29:34;;;;;;;;;2.00;2.00;;;;;-149.69;100.00;58464.25;6255730;22;44595;-92
2022/01/09 00:32:00;;;;;;;;;5.67;1.67;;;;;-149.69;100.00;58464.25;6224788;22;45630;-91
2022/01/09 00:34:25;;;;;;;;;0.00;0.00;;;;;-149.69;100.00;58464.25;6261999;22;28444;-91
2022/01/09 00:36:50;;;;;;;;;6.67;2.33;;;;;-149.69;100.00;58464.25;6240400;22;27804;-91
2022/01/09 00:39:16;;;;;;;;;6.33;2.00;;;;;-149.69;100.00;58464.25;6234074;22;29667;-92
2022/01/09 00:41:41;;;;;;;;;3.67;1.67;;;;;-149.69;100.00;58464.25;6262898;22;28262;-91
2022/01/09 00:44:06;;;;;;;;;6.00;3.00;;;;;-149.69;100.00;58464.25;6262127;22;28594;-91
2022/01/09 00:46:33;;;;;;;;;4.00;2.00;;;;;-149.69;100.00;58464.25;6262408;22;28495;-92
2022/01/09 00:48:59;;;;;;;;;3.67;1.33;;;;;-149.69;100.00;58464.25;6233590;22;30787;-91
2022/01/09 00:51:25;;;;;;;;;2.00;1.00;;;;;-149.69;100.00;58464.25;6261410;22;28505;-91
2022/01/09 00:53:50;;;;;;;;;4.00;2.00;;;;;-149.69;100.00;58464.25;6258354;22;44011;-91
2022/01/09 00:56:15;;;;;;;;;3.00;2.33;;;;;-149.69;100.00;58464.25;6242923;22;28365;-91
2022/01/09 00:58:42;;;;;;;;;5.00;2.33;;;;;-149.69;100.00;58464.25;6260550;22;44784;-91
2022/01/09 01:01:07;;;;;;;;;6.00;3.00;;;;;-149.69;100.00;58464.25;6260205;22;29314;-92
2022/01/09 01:03:32;;;;;;;;;2.67;2.67;;;;;-149.69;100.00;58464.25;6236685;22;28332;-92
2022/01/09 01:05:58;;;;;;;;;4.00;1.33;;;;;-149.69;100.00;58464.25;6271301;22;29976;-92
2022/01/09 01:08:23;;;;;;;;;0.67;0.00;;;;;-149.69;100.00;58464.25;6268643;22;29913;-91
2022/01/09 01:10:48;;;;;;;;;2.67;2.00;;;;;-149.69;100.00;58464.25;6269047;22;29464;-91
2022/01/09 01:13:14;;;;;;;;;2.00;1.00;;;;;-149.69;100.00;58464.25;6266858;22;37588;-92
2022/01/09 01:15:39;;;;;;;;;2.00;2.00;;;;;-149.69;100.00;58464.25;6236354;22;28345;-91
2022/01/09 01:18:04;;;;;;;;;1.00;1.00;;;;;-149.69;100.00;58464.25;6234082;22;29851;-91
2022/01/09 01:20:32;;;;;;;;;1.00;1.00;;;;;-149.69;100.00;58464.25;6261619;22;28401;-91
2022/01/09 01:22:58;;;;;;;;;1.67;1.00;;;;;-149.69;100.00;58464.25;6233152;22;28838;-91
2022/01/09 01:25:24;;;;;;;;;3.00;1.33;;;;;-149.69;100.00;58464.25;6261877;22;28449;-91
2022/01/09 01:27:50;;;;;;;;;2.00;2.00;;;;;-149.69;100.00;58464.25;6233270;22;30629;-91
2022/01/09 01:30:15;;;;;;;;;2.33;1.00;;;;;-149.69;100.00;58464.25;6233098;22;28999;-92
2022/01/09 01:32:43;;;;;;;;;1.33;1.33;;;;;-149.69;100.00;58464.25;6268424;22;28275;-91
2022/01/09 01:35:09;;;;;;;;;4.33;2.00;;;;;-149.69;100.00;58464.25;6259020;22;28590;-91
2022/01/09 01:37:38;;;;;;;;;3.67;2.00;;;;;-149.69;100.00;58464.25;6258392;22;30326;-91
2022/01/09 01:40:09;;;;;;;;;2.33;1.33;;;;;-149.69;100.00;58464.25;6233452;22;29242;-91
2022/01/09 01:42:34;;;;;;;;;2.00;1.00;;;;;-149.69;100.00;58464.25;6264118;22;28444;-92
2022/01/09 01:45:00;;;;;;;;;1.67;1.67;;;;;-149.69;100.00;58464.25;6261260;22;28310;-92
2022/01/09 01:47:25;;;;;;;;;3.00;2.00;;;;;-149.69;100.00;58464.25;6260248;22;28347;-92
2022/01/09 01:49:51;;;;;;;;;4.33;0.67;;;;;-149.69;100.00;58464.25;6232551;22;28491;-92
2022/01/09 01:52:26;;;;;;;;;2.67;1.00;;;;;-149.69;100.00;58464.25;6263208;22;27764;-92
2022/01/09 01:54:52;;;;;;;;;2.00;1.00;;;;;-149.69;100.00;58464.25;6268808;22;28502;-93
2022/01/09 01:57:18;;;;;;;;;3.00;1.33;;;;;-149.69;100.00;58464.25;6242204;22;29868;-92
2022/01/09 01:59:43;;;;;;;;;1.00;1.00;;;;;-149.69;100.00;58464.25;6241254;22;29896;-92
2022/01/09 02:02:09;;;;;;;;;1.33;1.33;;;;;-149.69;100.00;58464.25;6241538;22;30593;-92
2022/01/09 02:04:34;;;;;;;;;1.00;1.00;;;;;-149.69;100.00;58464.25;6234243;22;28562;-92
2022/01/09 02:07:02;;;;;;;;;2.00;1.00;;;;;-149.69;100.00;58464.25;6236294;22;30992;-92
2022/01/09 02:09:27;;;;;;;;;3.00;1.00;;;;;-149.69;100.00;58464.25;6260207;22;29388;-92
2022/01/09 02:11:53;;;;;;;;;0.00;0.00;;;;;-149.69;100.00;58464.25;6233141;22;28407;-93
2022/01/09 02:14:18;;;;;;;;;1.67;0.00;;;;;-149.69;100.00;58464.25;6259668;22;28516;-94
2022/01/09 02:16:44;;;;;;;;;1.33;0.00;;;;;-149.69;100.00;58464.25;6233410;22;29998;-93
2022/01/09 02:19:14;;;;;;;;;2.00;1.00;;;;;-149.69;100.00;58464.25;6259851;22;28321;-92
2022/01/09 02:21:46;;;;;;;;;1.00;1.00;;;;;-149.69;100.00;58464.25;6233406;22;28433;-93
2022/01/09 02:24:12;;;;;;;;;0.00;0.00;;;;;-149.69;100.00;58464.25;6233313;22;28546;-92
2022/01/09 02:26:38;;;;;;;;;3.00;1.00;;;;;-149.69;100.00;58464.25;6232885;22;30009;-92
2022/01/09 02:29:06;;;;;;;;;1.00;1.00;;;;;-149.69;100.00;58464.25;6231472;22;29596;-92
2022/01/09 02:31:35;;;;;;;;;2.00;0.00;;;;;-149.69;100.00;58464.25;6233204;22;28384;-92
2022/01/09 02:34:01;;;;;;;;;0.00;0.00;;;;;-149.69;100.00;58464.25;6232100;22;28341;-92
2022/01/09 02:36:26;;;;;;;;;0.00;0.00;;;;;-149.69;100.00;58464.25;6261163;22;29287;-92
2022/01/09 02:38:52;;;;;;;;;1.00;0.00;;;;;-149.69;100.00;58464.25;6232630;22;28447;-93
2022/01/09 02:41:18;;;;;;;;;1.33;1.00;;;;;-149.69;100.00;58464.25;6266322;22;28380;-93
2022/01/09 02:43:43;;;;;;;;;0.00;0.00;;;;;-149.69;100.00;58464.25;6240534;22;28479;-92
2022/01/09 02:46:27;;;;;;;;;2.00;0.33;;;;;-149.69;100.00;58464.25;6242220;22;30744;-93
2022/01/09 02:48:52;;;;;;;;;3.00;2.00;;;;;-149.69;100.00;58464.25;6241745;22;28855;-93
2022/01/09 02:51:18;;;;;;;;;0.00;0.00;;;;;-149.69;100.00;58464.25;6266504;22;28580;-93
2022/01/09 02:53:47;;;;;;;;;2.00;0.00;;;;;-149.69;100.00;58464.25;6232278;22;28317;-93
2022/01/09 02:56:14;;;;;;;;;0.67;0.67;;;;;-149.69;100.00;58464.25;6233295;22;29883;-92
2022/01/09 02:58:41;;;;;;;;;1.00;0.33;;;;;-149.69;100.00;58464.25;6231842;22;29662;-92
2022/01/09 03:01:08;;;;;;;;;3.67;1.00;;;;;-149.69;100.00;58464.25;6233448;22;28237;-93
2022/01/09 03:03:34;;;;;;;;;2.00;1.00;;;;;-149.69;100.00;58464.25;6231981;22;28415;-92
2022/01/09 03:05:59;;;;;;;;;5.00;1.00;;;;;-149.69;100.00;58464.25;6233142;22;30312;-93
2022/01/09 03:08:25;;;;;;;;;0.67;0.00;;;;;-149.69;100.00;58464.25;6232317;22;28609;-92
2022/01/09 03:10:50;;;;;;;;;0.00;0.00;;;;;-149.69;100.00;58464.25;6233365;22;28589;-92
2022/01/09 03:13:16;;;;;;;;;1.00;0.00;;;;;-149.69;100.00;58464.25;6231303;22;28582;-92
2022/01/09 03:15:41;;;;;;;;;0.00;0.00;;;;;-149.69;100.00;58464.25;6232885;22;29927;-92
2022/01/09 03:18:07;;;;;;;;;3.00;1.00;;;;;-149.69;100.00;58464.25;6232097;22;28330;-92
2022/01/09 03:20:32;;;;;;;;;2.00;0.00;;;;;-149.69;100.00;58464.25;6233131;22;28223;-92
2022/01/09 03:22:58;;;;;;;;;1.00;0.00;;;;;-149.69;100.00;58464.25;6257662;22;28317;-92
2022/01/09 03:25:25;;;;;;;;;7.33;2.00;;;;;-149.69;100.00;58464.25;6258385;22;29749;-92
2022/01/09 03:27:52;;;;;;;;;1.00;1.00;;;;;-149.69;100.00;58464.25;6259810;22;28466;-90
2022/01/09 03:30:19;;;;;;;;;1.00;1.00;;;;;-149.69;100.00;58464.25;6233233;22;28522;-93
2022/01/09 03:32:45;;;;;;;;;5.00;0.00;;;;;-149.69;100.00;58464.25;6238883;22;28483;-92
2022/01/09 03:35:13;;;;;;;;;0.00;0.00;;;;;-149.69;100.00;58464.25;6266880;22;29914;-93
2022/01/09 03:37:40;;;;;;;;;0.67;0.33;;;;;-149.69;100.00;58464.25;6236219;22;28931;-93
2022/01/09 03:40:08;;;;;;;;;0.00;0.00;;;;;-149.69;100.00;58464.25;6270138;22;28547;-93
2022/01/09 03:42:34;;;;;;;;;3.00;2.00;;;;;-149.69;100.00;58464.25;6241200;22;28500;-93
2022/01/09 03:45:01;;;;;;;;;8.00;1.00;;;;;-149.69;100.00;58464.25;6234956;22;29694;-93
2022/01/09 03:47:26;;;;;;;;;2.00;1.00;;;;;-149.69;100.00;58464.25;6232954;22;28746;-92
2022/01/09 03:49:52;;;;;;;;;5.67;2.33;;;;;-149.69;100.00;58464.25;6233729;22;28366;-93
2022/01/09 03:52:18;;;;;;;;;1.67;1.00;;;;;-149.69;100.00;58464.25;6260020;22;28393;-93
2022/01/09 03:54:43;;;;;;;;;4.33;1.00;;;;;-149.69;100.00;58464.25;6258259;22;29892;-93
2022/01/09 03:57:08;;;;;;;;;0.33;0.00;;;;;-149.69;100.00;58464.25;6232877;22;29277;-93
2022/01/09 03:59:34;;;;;;;;;1.00;0.00;;;;;-149.69;100.00;58464.25;6232127;22;28363;-92
2022/01/09 04:02:00;;;;;;;;;1.00;0.00;;;;;-149.69;100.00;58464.25;6232317;22;28622;-92
2022/01/09 04:04:26;;;;;;;;;1.00;0.00;;;;;-149.69;100.00;58464.25;6232966;22;30029;-93
2022/01/09 04:06:51;;;;;;;;;2.00;0.33;;;;;-149.69;100.00;58464.25;6232920;22;28320;-93
2022/01/09 04:09:28;;;;;;;;;1.33;0.00;;;;;-149.69;100.00;58464.25;6232154;22;28423;-94
2022/01/09 04:12:03;;;;;;;;;2.00;1.00;;;;;-149.69;100.00;58464.25;6232685;22;27934;-93
2022/01/09 04:14:28;;;;;;;;;0.00;0.00;;;;;-149.69;100.00;58464.25;6230593;22;29670;-93
2022/01/09 04:16:53;;;;;;;;;0.00;0.00;;;;;-149.69;100.00;58464.25;6232903;22;28887;-93
2022/01/09 04:19:19;;;;;;;;;0.00;0.00;;;;;-149.69;100.00;58464.25;6232981;22;28460;-93
2022/01/09 04:21:44;;;;;;;;;0.00;0.00;;;;;-149.69;100.00;58464.25;6260650;22;28479;-93
2022/01/09 04:24:10;;;;;;;;;1.00;0.67;;;;;-149.69;100.00;58464.25;6266337;22;29455;-92
2022/01/09 04:26:36;;;;;;;;;0.00;0.00;;;;;-149.69;100.00;58464.25;6267928;22;28550;-92
2022/01/09 04:29:01;;;;;;;;;0.33;0.00;;;;;-149.69;100.00;58464.25;6240608;22;28462;-92
2022/01/09 04:31:27;;;;;;;;;0.67;0.00;;;;;-149.69;100.00;58464.25;6241852;22;28313;-93
2022/01/09 04:33:52;;;;;;;;;1.00;1.00;;;;;-149.69;100.00;58464.25;6239893;22;29599;-93
2022/01/09 04:36:17;;;;;;;;;2.33;2.00;;;;;-149.69;100.00;58464.25;6259327;22;29610;-92
2022/01/09 04:38:43;;;;;;;;;3.00;0.00;;;;;-149.69;100.00;58464.25;6232191;22;28329;-93
2022/01/09 04:41:08;;;;;;;;;2.00;0.00;;;;;-149.69;100.00;58464.25;6232403;22;28339;-92
2022/01/09 04:43:34;;;;;;;;;0.00;0.00;;;;;-149.69;100.00;58464.25;6231109;22;29583;-93
2022/01/09 04:45:59;;;;;;;;;8.00;1.33;;;;;-149.69;100.00;58464.25;6257714;22;28297;-92
2022/01/09 04:48:25;;;;;;;;;0.00;0.00;;;;;-149.69;100.00;58464.25;6232603;22;28462;-94
2022/01/09 04:50:52;;;;;;;;;2.67;0.00;;;;;-149.69;100.00;58464.25;6232497;22;28384;-93
2022/01/09 04:53:18;;;;;;;;;1.33;0.00;;;;;-149.69;100.00;58464.25;6231943;22;30143;-93
2022/01/09 04:55:50;;;;;;;;;0.33;0.33;;;;;-149.69;100.00;58464.25;6232709;22;28523;-94
2022/01/09 04:58:16;;;;;;;;;0.00;0.00;;;;;-149.69;100.00;58464.25;6231452;22;28369;-93
2022/01/09 05:00:41;;;;;;;;;1.00;1.00;;;;;-149.69;100.00;58464.25;6232580;22;28399;-93
2022/01/09 05:03:08;;;;;;;;;2.00;0.00;;;;;-149.69;100.00;58464.25;6232058;22;30426;-92
2022/01/09 05:05:34;;;;;;;;;0.00;0.00;;;;;-149.69;100.00;58464.25;6232299;22;28523;-93
2022/01/09 05:08:00;;;;;;;;;1.00;1.00;;;;;-149.69;100.00;58464.25;6231748;22;28596;-93
2022/01/09 05:10:25;;;;;;;;;1.00;0.00;;;;;-149.69;100.00;58464.25;6232144;22;28483;-92
2022/01/09 05:12:51;;;;;;;;;2.67;1.33;;;;;-149.69;100.00;58464.25;6234493;22;29779;-93
2022/01/09 05:15:19;;;;;;;;;1.00;0.00;;;;;-149.69;100.00;58464.25;6269338;22;28428;-92
2022/01/09 05:17:44;;;;;;;;;1.67;1.00;;;;;-149.69;100.00;58464.25;6267777;22;28400;-93
2022/01/09 05:20:10;;;;;;;;;2.00;1.00;;;;;-149.69;100.00;58464.25;6242889;22;28322;-92
2022/01/09 05:22:35;;;;;;;;;4.33;1.00;;;;;-149.69;100.00;58464.25;6241594;22;29892;-92
2022/01/09 05:25:02;;;;;;;;;1.00;1.00;;;;;-149.69;100.00;58464.25;6235945;22;28409;-92
2022/01/09 05:27:28;;;;;;;;;3.00;1.00;;;;;-149.69;100.00;58464.25;6232739;22;28514;-92
2022/01/09 05:29:54;;;;;;;;;1.67;0.00;;;;;-149.69;100.00;58464.25;6259201;22;28463;-92
2022/01/09 05:32:19;;;;;;;;;1.33;0.67;;;;;-149.69;100.00;58464.25;6260853;22;29307;-92
2022/01/09 05:34:45;;;;;;;;;3.00;1.00;;;;;-149.69;100.00;58464.25;6260464;22;28443;-91
2022/01/09 05:37:10;;;;;;;;;2.67;0.67;;;;;-149.69;100.00;58464.25;6233865;22;28738;-92
2022/01/09 05:39:36;;;;;;;;;2.33;1.00;;;;;-149.69;100.00;58464.25;6233411;22;28388;-91
2022/01/09 05:42:04;;;;;;;;;0.67;0.00;;;;;-149.69;100.00;58464.25;6258282;22;29720;-92
2022/01/09 05:44:31;;;;;;;;;0.00;0.00;;;;;-149.69;100.00;58464.25;6232346;22;29707;-92
2022/01/09 05:46:57;;;;;;;;;1.00;1.00;;;;;-149.69;100.00;58464.25;6259482;22;28495;-92
2022/01/09 05:49:23;;;;;;;;;1.00;1.00;;;;;-149.69;100.00;58464.25;6261239;22;28510;-92
2022/01/09 05:51:48;;;;;;;;;2.67;2.00;;;;;-149.69;100.00;58464.25;6259227;22;31068;-91
2022/01/09 05:54:13;;;;;;;;;0.67;0.00;;;;;-149.69;100.00;58464.25;6233143;22;29599;-92
2022/01/09 05:56:39;;;;;;;;;3.67;2.00;;;;;-149.69;100.00;58464.25;6259435;22;28457;-92
2022/01/09 05:59:04;;;;;;;;;2.33;1.00;;;;;-149.69;100.00;58464.25;6259700;22;28371;-92
2022/01/09 06:01:29;;;;;;;;;5.00;2.33;;;;;-149.69;100.00;58464.25;6234925;22;29558;-92
2022/01/09 06:03:55;;;;;;;;;2.67;2.67;;;;;-149.69;100.00;58464.25;6243136;22;28652;-91
2022/01/09 06:06:20;;;;;;;;;5.00;1.00;;;;;-149.69;100.00;58464.25;6243565;22;28333;-92
2022/01/09 06:08:46;;;;;;;;;1.67;0.67;;;;;-149.69;100.00;58464.25;6242139;22;28416;-92
2022/01/09 06:11:12;;;;;;;;;2.00;1.00;;;;;-149.69;100.00;58464.25;6242432;22;29797;-92
2022/01/09 06:13:37;;;;;;;;;2.33;1.67;;;;;-149.69;100.00;58464.25;6262762;22;28511;-92
2022/01/09 06:16:03;;;;;;;;;1.67;1.00;;;;;-149.69;100.00;58464.25;6234031;22;28307;-91
2022/01/09 06:18:30;;;;;;;;;1.00;1.00;;;;;-149.69;100.00;58464.25;6233482;22;28306;-92
2022/01/09 06:20:55;;;;;;;;;1.00;1.00;;;;;-149.69;100.00;58464.25;6233062;22;30150;-92
2022/01/09 06:23:20;;;;;;;;;2.00;0.00;;;;;-149.69;100.00;58464.25;6265980;22;28309;-92
2022/01/09 06:25:55;;;;;;;;;1.00;1.00;;;;;-149.69;100.00;58464.25;6233505;22;28405;-92
2022/01/09 06:28:21;;;;;;;;;2.00;0.67;;;;;-149.69;100.00;58464.25;6259884;22;28374;-92
2022/01/09 06:30:46;;;;;;;;;0.00;0.00;;;;;-149.69;100.00;58464.25;6232835;22;29651;-91
2022/01/09 06:33:12;;;;;;;;;0.33;0.00;;;;;-149.69;100.00;58464.25;6261032;22;28660;-92
2022/01/09 06:35:39;;;;;;;;;2.00;0.00;;;;;-149.69;100.00;58464.25;6233105;22;28487;-91
2022/01/09 06:38:05;;;;;;;;;0.67;0.67;;;;;-149.69;100.00;58464.25;6260288;22;28722;-91
2022/01/09 06:40:31;;;;;;;;;1.33;1.00;;;;;-149.69;100.00;58464.25;6258349;22;29804;-91
2022/01/09 06:42:57;;;;;;;;;2.00;0.00;;;;;-149.69;100.00;58464.25;6259376;22;28439;-91
2022/01/09 06:45:24;;;;;;;;;0.00;0.00;;;;;-149.69;100.00;58464.25;6232628;22;28381;-92
2022/01/09 06:47:50;;;;;;;;;0.00;0.00;;;;;-149.69;100.00;58464.25;6261221;22;28441;-92
2022/01/09 06:50:17;;;;;;;;;0.00;0.00;;;;;-149.69;100.00;58464.25;6237636;22;29906;-92
2022/01/09 06:52:42;;;;;;;;;0.00;0.00;;;;;-149.69;100.00;58464.25;6242437;22;29801;-92
2022/01/09 06:55:08;;;;;;;;;2.67;1.00;;;;;-149.69;100.00;58464.25;6242042;22;28524;-92
2022/01/09 06:57:34;;;;;;;;;0.00;0.00;;;;;-149.69;100.00;58464.25;6242539;22;28420;-93
2022/01/09 06:59:59;;;;;;;;;0.00;0.00;;;;;-149.69;100.00;58464.25;6241378;22;29714;-92
2022/01/09 07:02:25;;;;;;;;;0.00;0.00;;;;;-149.69;100.00;58464.25;6233968;22;28418;-94
2022/01/09 07:04:50;;;;;;;;;0.00;0.00;;;;;-149.69;100.00;58464.25;6233502;22;28515;-93
2022/01/09 07:07:16;;;;;;;;;0.00;0.00;;;;;-149.69;100.00;58464.25;6232854;22;28471;-93
2022/01/09 07:09:41;;;;;;;;;0.00;0.00;;;;;-149.69;100.00;58464.25;6260601;22;28607;-92
2022/01/09 07:12:08;;;;;;;;;0.00;0.00;;;;;-149.69;100.00;58464.25;6232304;22;29643;-91
2022/01/09 07:14:33;;;;;;;;;2.00;1.00;;;;;-149.69;100.00;58464.25;6259439;22;28328;-93
2022/01/09 07:16:59;;;;;;;;;1.33;0.67;;;;;-149.69;100.00;58464.25;6232884;22;28531;-93
2022/01/09 07:19:24;;;;;;;;;0.33;0.00;;;;;-149.69;100.00;58464.25;6232610;22;31319;-93
2022/01/09 07:21:49;;;;;;;;;0.00;0.00;;;;;-149.69;100.00;58464.25;6233334;22;29175;-93
2022/01/09 07:24:15;;;;;;;;;1.00;1.00;;;;;-149.69;100.00;58464.25;6231872;22;27812;-92
2022/01/09 07:26:40;;;;;;;;;0.00;0.00;;;;;-149.69;100.00;58464.25;6233566;22;28326;-92
2022/01/09 07:29:05;;;;;;;;;1.00;0.00;;;;;-149.69;100.00;58464.25;6231065;22;30382;-92
2022/01/09 07:31:31;;;;;;;;;0.00;0.00;;;;;-149.69;100.00;58464.25;6232316;22;28515;-92
2022/01/09 07:33:56;;;;;;;;;1.33;1.00;;;;;-149.69;100.00;58464.25;6260343;22;28324;-91
2022/01/09 07:36:21;;;;;;;;;1.00;0.00;;;;;-149.69;100.00;58464.25;6233054;22;28351;-95
2022/01/09 07:38:46;;;;;;;;;3.00;1.00;;;;;-149.69;100.00;58464.25;6233549;22;29891;-93
2022/01/09 07:41:14;;;;;;;;;2.00;0.00;;;;;-149.69;100.00;58464.25;6243961;22;28630;-96
2022/01/09 07:43:40;;;;;;;;;5.00;0.00;;;;;-149.69;100.00;58464.25;6244753;22;27748;-94
2022/01/09 07:46:06;;;;;;;;;0.00;0.00;;;;;-149.69;100.00;58464.25;6242172;22;28383;-94
2022/01/09 07:48:31;;;;;;;;;0.67;0.67;;;;;-149.69;100.00;58464.25;6242840;22;29895;-95
2022/01/09 07:50:58;;;;;;;;;0.00;0.00;;;;;-149.69;100.00;58464.25;6240105;22;28364;-95
2022/01/09 07:53:23;;;;;;;;;1.00;1.00;;;;;-149.69;100.00;58464.25;6232557;22;28435;-95
2022/01/09 07:55:51;;;;;;;;;0.00;0.00;;;;;-149.69;100.00;58464.25;6235422;22;28412;-96
2022/01/09 07:58:17;;;;;;;;;0.00;0.00;;;;;-149.69;100.00;58464.25;6236480;22;29898;-96
2022/01/09 08:00:43;;;;;;;;;0.00;0.00;;;;;-149.69;100.00;58464.25;6238812;22;28439;-96
2022/01/09 08:03:09;;;;;;;;;0.00;0.00;;;;;-149.69;100.00;58464.25;6238611;22;28433;-95
2022/01/09 08:05:34;;;;;;;;;1.00;1.00;;;;;-149.69;100.00;58464.25;6233262;22;28380;-96
2022/01/09 08:07:59;;;;;;;;;0.00;0.00;;;;;-149.69;100.00;58464.25;6232061;22;29815;-95
2022/01/09 08:10:25;;;;;;;;;1.67;0.00;;;;;-149.69;100.00;58464.25;6234272;22;34477;-96
2022/01/09 08:12:51;;;;;;;;;0.00;0.00;;;;;-149.69;100.00;58464.25;6236289;22;28683;-96
2022/01/09 08:15:16;;;;;;;;;0.00;0.00;;;;;-149.69;100.00;58464.25;6269363;22;28387;-96
2022/01/09 08:17:45;;;;;;;;;0.00;0.00;;;;;-149.69;100.00;58464.25;6242318;22;30049;-96
2022/01/09 08:20:32;;;;;;;;;0.00;0.00;;;;;-149.69;100.00;58464.25;6239814;22;28651;-96
2022/01/09 08:22:57;;;;;;;;;0.00;0.00;;;;;-149.69;100.00;58464.25;6233605;22;28480;-94
2022/01/09 08:25:23;;;;;;;;;0.00;0.00;;;;;-149.69;100.00;58464.25;6260580;22;28540;-94
2022/01/09 08:27:48;;;;;;;;;2.67;1.00;;;;;-149.69;100.00;58464.25;6231808;22;30042;-94
2022/01/09 08:30:15;;;;;;;;;0.33;0.00;;;;;-149.69;100.00;58464.25;6260426;22;28334;-95
2022/01/09 08:32:40;;;;;;;;;0.00;0.00;;;;;-149.69;100.00;58464.25;6232631;22;28388;-95
2022/01/09 08:35:07;;;;;;;;;0.00;0.00;;;;;-149.69;100.00;58464.25;6241836;22;28316;-94
2022/01/09 08:37:33;;;;;;;;;0.00;0.00;;;;;-149.69;100.00;58464.25;6240360;22;29983;-94
2022/01/09 08:39:58;;;;;;;;;3.00;3.00;;;;;-149.69;100.00;58464.25;6238445;22;28730;-94
2022/01/09 08:42:24;;;;;;;;;1.00;1.00;;;;;-149.69;100.00;58464.25;6237898;22;28603;-93
2022/01/09 08:44:49;;;;;;;;;0.00;0.00;;;;;-149.69;100.00;58464.25;6231705;22;28375;-92
2022/01/09 08:47:14;;;;;;;;;2.00;0.33;;;;;-149.69;100.00;58464.25;6233249;22;30844;-93
2022/01/09 08:49:40;;;;;;;;;5.00;1.50;;;;;-149.69;100.00;58464.25;6232990;22;28629;-93
2022/01/09 08:52:05;;;;;;;;;0.33;0.00;;;;;-149.69;100.00;58464.25;6259300;22;28468;-91
2022/01/09 08:54:41;;;;;;;;;2.67;2.00;;;;;-149.69;100.00;58464.25;6260501;22;28447;-95
2022/01/09 08:57:07;;;;;;;;;0.00;0.00;;;;;-149.69;100.00;58464.25;6231177;22;45765;-90
2022/01/09 08:59:33;;;;;;;;;0.00;0.00;;;;;-149.69;100.00;58464.25;6259623;22;28420;-90
2022/01/09 09:01:58;;;;;;;;;1.00;1.00;;;;;-149.69;100.00;58464.25;6232253;22;27890;-91
2022/01/09 09:04:24;;;;;;;;;1.67;1.67;;;;;-149.69;100.00;58464.25;6260524;22;28369;-90
2022/01/09 09:06:51;;;;;;;;;0.67;0.67;;;;;-149.69;100.00;58464.25;6260306;22;29342;-91
2022/01/09 09:09:16;;;;;;;;;0.67;0.00;;;;;-149.69;100.00;58464.25;6233080;22;28734;-91
2022/01/09 09:11:41;;;;;;;;;1.00;0.00;;;;;-149.69;100.00;58464.25;6234023;22;28350;-91
2022/01/09 09:14:07;;;;;;;;;0.67;0.67;;;;;-149.69;100.00;58464.25;6260629;22;28361;-91
2022/01/09 09:16:33;;;;;;;;;5.00;2.67;;;;;-149.69;100.00;58464.25;6262131;22;28215;-94
2022/01/09 09:18:58;;;;;;;;;1.00;1.00;;;;;-149.69;100.00;58464.25;6236462;22;28425;-94
2022/01/09 09:21:24;;;;;;;;;0.67;0.67;;;;;-149.69;100.00;58464.25;6241991;22;27728;-93
2022/01/09 09:23:49;;;;;;;;;2.00;1.00;;;;;-149.69;100.00;58464.25;6244160;22;28219;-92
2022/01/09 09:26:16;;;;;;;;;2.00;2.00;;;;;-149.69;100.00;58464.25;6268585;22;29779;-91
2022/01/09 09:28:42;;;;;;;;;0.00;0.00;;;;;-149.69;100.00;58464.25;6266817;22;28340;-92
2022/01/09 09:31:08;;;;;;;;;2.33;0.67;;;;;-149.69;100.00;58464.25;6266370;22;28385;-94
2022/01/09 09:33:34;;;;;;;;;1.67;0.67;;;;;-149.69;100.00;58464.25;6233000;22;28428;-93
2022/01/09 09:36:00;;;;;;;;;19.75;17.25;;;;;-149.69;100.00;58464.25;6258929;22;29966;-92
2022/01/09 09:38:27;;;;;;;;;13.67;11.33;;;;;-149.69;100.00;58464.25;6260330;22;28460;-93
2022/01/09 09:40:52;;;;;;;;;7.67;5.33;;;;;-149.69;100.00;58464.25;6234096;22;28537;-92
2022/01/09 09:43:19;;;;;;;;;6.00;6.00;;;;;-149.69;100.00;58464.25;6242392;22;27954;-96
2022/01/09 09:45:45;;;;;;;;;13.33;9.00;;;;;-149.69;100.00;58464.25;6243637;22;29880;-96
2022/01/09 09:48:15;;;;;;;;;2.67;2.67;;;;;-149.69;100.00;58464.25;6279107;22;28412;-96
2022/01/09 09:50:41;;;;;;;;;5.00;2.67;;;;;-149.69;100.00;58464.25;6230799;22;28300;-96
2022/01/09 09:53:06;;;;;;;;;5.00;3.00;;;;;-149.69;100.00;58464.25;6243969;22;28265;-96
2022/01/09 09:55:33;;;;;;;;;2.67;2.00;;;;;-149.69;100.00;58464.25;6271809;22;30142;-94
2022/01/09 10:14:03;;;;;;;;;6.00;3.00;;;;;-149.69;100.00;58464.25;6209043;22;29126;31
2022/01/09 10:16:29;;;;;;;;;2.00;2.00;;;;;-149.69;100.00;58464.25;6263212;22;28664;-96
2022/01/09 10:21:35;;;;;;;;;4.33;3.00;;;;;-149.69;100.00;58464.25;6254648;22;28848;-96
2022/01/09 10:39:36;;;;;;;;;18.67;17.00;;;;;-149.69;100.00;58464.25;6274673;22;28085;-96
2022/01/09 10:42:03;;;;;;;;;16.33;11.00;;;;;-149.69;100.00;58464.25;6272101;22;27900;-96
2022/01/09 10:44:33;;;;;;;;;11.00;8.00;;;;;-149.69;100.00;58464.25;6279937;22;28306;-96
2022/01/09 10:47:05;;;;;;;;;5.33;3.00;;;;;-149.69;100.00;58464.25;6271255;22;28413;-96
2022/01/09 10:49:42;;;;;;;;;14.00;8.33;;;;;-149.69;100.00;58464.25;6272267;22;28384;-96
2022/01/09 10:52:18;;;;;;;;;6.33;3.67;;;;;-149.69;100.00;58464.25;6275069;22;28259;-96
2022/01/09 10:54:46;;;;;;;;;3.00;3.00;;;;;-149.69;100.00;58464.25;6285217;22;27689;-96
2022/01/09 10:57:20;;;;;;;;;3.67;3.67;;;;;-149.69;100.00;58464.25;6282270;22;28304;-96
2022/01/09 10:59:46;;;;;;;;;11.33;10.00;;;;;-149.69;100.00;58464.25;6281839;22;28374;-96
2022/01/09 11:02:12;;;;;;;;;18.00;16.67;;;;;-149.69;100.00;58464.25;6283862;22;27787;-95
2022/01/09 11:04:43;;;;;;;;;12.33;8.67;;;;;-149.69;100.00;58464.25;6275285;22;27947;-95
2022/01/09 11:07:10;;;;;;;;;17.33;14.67;;;;;-149.69;100.00;58464.25;6242760;22;29941;-96
2022/01/09 11:09:42;;;;;;;;;15.67;13.67;;;;;-149.69;100.00;58464.25;6265649;22;29261;-95
2022/01/09 11:12:08;;;;;;;;;15.00;15.00;;;;;-149.69;100.00;58464.25;6240461;22;28314;-95
2022/01/09 11:14:39;;;;;;;;;13.67;13.67;;;;;-149.69;100.00;58464.25;6262933;22;28392;-96
2022/01/09 11:17:07;;;;;;;;;10.00;10.00;;;;;-149.69;100.00;58464.25;6234966;22;30532;-95
2022/01/09 11:19:35;;;;;;;;;13.00;8.33;;;;;-149.69;100.00;58464.25;6237784;22;28046;-94
2022/01/09 11:22:05;;;;;;;;;10.67;8.33;;;;;-149.69;100.00;58464.25;6237634;22;28424;-95
2022/01/09 11:24:43;;;;;;;;;10.67;8.33;;;;;-149.69;100.00;58464.25;6239664;22;28321;-93
2022/01/09 11:27:22;;;;;;;;;12.00;9.33;;;;;-149.69;100.00;58464.25;6262990;22;30833;-95
2022/01/09 11:30:14;;;;;;;;;8.33;8.33;;;;;-149.69;100.00;58464.25;6264037;22;28610;-95
2022/01/09 11:33:17;;;;;;;;;8.33;7.00;;;;;-149.69;100.00;58464.25;6234264;22;28307;-94
2022/01/09 11:36:08;;;;;;;;;8.00;7.00;;;;;-149.69;100.00;58464.25;6261004;22;28469;-95
2022/01/09 11:39:02;;;;;;;;;7.33;6.00;;;;;-149.69;100.00;58464.25;6138878;23;30036;-96
2022/01/09 11:41:31;;;;;;;;;8.33;8.00;;;;;-149.69;100.00;58464.25;6235446;22;28089;-96